Allen, Alabama
Current Conditions -  °F | °C
As of 5:53 AM on Friday 19 Dec 2014 (Local Time) from KGZH Reporting Station
Few Clouds Few Clouds  
Wind Chill: 45°   Ceiling: Unl
Heat Index: 47°   Visibility: 10mi
Dew Point: 37°   Wind: 5mph
Humidity: 68%   Direction: 20°NNE
Pressure: 30.14"   Gusts: NA
Location:  31.6°N, 87.71°W
Report Text: KGZH 191153Z AUTO 02004KT 10SM FEW030 08/03 A3014 RMK AO2 SLP204 T00830028 10106 20083 58002
Loading
Personal Weather Stations






























Interactive Weather Map New forecast layout! Learn more

10-Day Weather Forecast

Advertisements
Track Severe Weather on mobile